Time;durP1;ratioP1;P1;durP2;ratioP2;P2;SDS_P1;SDS_P2;PMS_P1;PMS_P2;Temp;Humidity;BMP_temperature;BMP_pressure;BME280_temperature;BME280_humidity;BME280_pressure;Samples;Min_cycle;Max_cycle;Signal;HPM_P1;HPM_P2
2021/09/20 00:01:53;;;;;;;4.90;4.70;;;;;;;11.81;75.99;101265.28;4413703;32;20068;-68
2021/09/20 00:04:19;;;;;;;5.20;5.00;;;;;;;11.76;75.68;101274.25;4423100;32;20590;-68
2021/09/20 00:06:44;;;;;;;5.00;4.70;;;;;;;11.52;76.55;101243.87;4434580;32;20096;-68
2021/09/20 00:09:09;;;;;;;6.18;5.87;;;;;;;11.65;76.79;101278.34;4412842;32;20080;-68
2021/09/20 00:11:35;;;;;;;4.68;4.47;;;;;;;11.63;77.08;101270.50;4437856;32;21366;-68
2021/09/20 00:14:00;;;;;;;6.28;5.97;;;;;;;11.53;77.35;101271.88;4411379;32;20655;-68
2021/09/20 00:16:26;;;;;;;4.82;4.62;;;;;;;11.50;77.55;101275.47;4413456;32;20073;-67
2021/09/20 00:18:51;;;;;;;5.95;5.45;;;;;;;11.55;76.89;101276.12;4409302;32;20097;-68
2021/09/20 00:21:16;;;;;;;5.62;5.35;;;;;;;11.51;76.92;101279.81;4411641;32;20754;-67
2021/09/20 00:23:42;;;;;;;4.72;4.53;;;;;;;11.44;76.80;101267.03;4424876;32;20079;-68
2021/09/20 00:26:07;;;;;;;5.82;5.57;;;;;;;11.48;76.57;101281.75;4411379;32;20080;-69
2021/09/20 00:28:32;;;;;;;4.90;4.70;;;;;;;11.44;76.54;101283.66;4420783;32;20088;-68
2021/09/20 00:30:58;;;;;;;5.85;5.57;;;;;;;11.38;77.11;101278.69;4411187;32;20133;-68
2021/09/20 00:33:23;;;;;;;4.70;4.50;;;;;;;11.31;77.43;101283.38;4405832;32;20341;-68
2021/09/20 00:35:49;;;;;;;4.80;4.60;;;;;;;11.26;77.43;101274.84;4430299;32;20830;-68
2021/09/20 00:38:14;;;;;;;5.50;5.28;;;;;;;11.25;77.48;101267.06;4423500;32;20428;-68
2021/09/20 00:40:39;;;;;;;4.50;4.30;;;;;;;11.26;77.79;101274.00;4422378;32;20068;-68
2021/09/20 00:43:05;;;;;;;6.50;6.20;;;;;;;11.21;77.32;101273.38;4420498;32;20065;-68
2021/09/20 00:45:30;;;;;;;4.57;4.37;;;;;;;11.15;77.64;101275.34;4344305;32;20468;-68
2021/09/20 00:47:55;;;;;;;4.72;4.53;;;;;;;11.12;77.67;101278.09;4319972;32;20062;-68
2021/09/20 00:50:21;;;;;;;5.00;4.80;;;;;;;11.08;77.61;101270.44;4344535;32;20061;-68
2021/09/20 00:52:46;;;;;;;4.90;4.70;;;;;;;11.02;78.29;101275.97;4349821;32;20143;-68
2021/09/20 00:55:12;;;;;;;6.12;5.82;;;;;;;10.98;78.18;101276.12;4321310;32;20156;-68
2021/09/20 00:57:39;;;;;;;4.65;4.45;;;;;;;10.93;79.29;101278.06;4350755;32;20311;-68
2021/09/20 01:00:05;;;;;;;6.32;6.03;;;;;;;10.90;79.70;101278.19;4318637;32;20118;-68
2021/09/20 01:02:30;;;;;;;4.45;4.25;;;;;;;10.82;79.83;101268.97;4355773;32;20515;-68
2021/09/20 01:04:55;;;;;;;5.00;4.80;;;;;;;10.86;79.49;101281.03;4316432;32;20074;-68
2021/09/20 01:07:21;;;;;;;4.80;4.60;;;;;;;10.81;80.02;101289.12;4324873;32;20067;-67
2021/09/20 01:09:46;;;;;;;4.70;4.50;;;;;;;10.75;80.25;101281.53;4345939;32;20073;-67
2021/09/20 01:12:12;;;;;;;5.97;5.68;;;;;;;10.69;79.77;101281.78;4332585;32;20326;-68
2021/09/20 01:14:37;;;;;;;4.53;4.32;;;;;;;10.64;80.43;101279.34;4337670;32;20070;-68
2021/09/20 01:17:06;;;;;;;6.95;6.55;;;;;;;10.58;81.32;101288.34;4339838;32;20552;-68
2021/09/20 01:19:31;;;;;;;4.95;4.65;;;;;;;10.48;82.13;101286.16;4335421;32;20073;-67
2021/09/20 01:22:04;;;;;;;4.82;4.62;;;;;;;10.43;82.56;101294.25;4341761;32;20149;-68
2021/09/20 01:24:29;;;;;;;4.87;4.68;;;;;;;10.32;83.00;101297.31;4330479;32;20082;-68
2021/09/20 01:26:58;;;;;;;4.50;4.30;;;;;;;10.23;84.32;101297.66;4331528;32;20149;-69
2021/09/20 01:29:23;;;;;;;4.80;4.60;;;;;;;10.16;85.45;101286.56;4318107;32;20086;-67
2021/09/20 01:31:49;;;;;;;4.70;4.50;;;;;;;10.10;85.93;101286.84;4337846;32;20073;-68
2021/09/20 01:34:14;;;;;;;5.55;5.35;;;;;;;10.06;85.21;101293.09;4318668;32;20443;-68
2021/09/20 01:36:39;;;;;;;4.60;4.40;;;;;;;10.02;85.09;101295.91;4335425;32;20698;-67
2021/09/20 01:39:15;;;;;;;6.25;5.95;;;;;;;9.89;85.33;101283.28;4356904;32;20136;-68
2021/09/20 01:41:40;;;;;;;4.50;4.30;;;;;;;9.91;86.01;101288.47;4368622;32;20062;-68
2021/09/20 01:44:05;;;;;;;6.37;6.07;;;;;;;9.87;86.05;101289.50;4349228;32;20093;-68
2021/09/20 01:46:31;;;;;;;4.65;4.45;;;;;;;9.75;85.83;101275.97;4345120;32;20742;-68
2021/09/20 01:48:56;;;;;;;4.57;4.37;;;;;;;8.50;86.33;101103.56;4341208;32;20071;-69
2021/09/20 01:51:21;;;;;;;4.62;4.43;;;;;;;9.75;87.12;101283.84;4355795;32;20050;-68
2021/09/20 01:53:47;;;;;;;4.60;4.40;;;;;;;9.72;86.83;101314.53;4352972;32;20074;-68
2021/09/20 01:56:12;;;;;;;6.60;6.25;;;;;;;9.68;86.48;101294.63;4348032;32;20117;-68
2021/09/20 01:58:37;;;;;;;4.68;4.47;;;;;;;9.61;87.49;101280.06;4332436;32;20082;-68
2021/09/20 02:01:03;;;;;;;5.87;5.62;;;;;;;9.69;86.95;101298.97;4313758;32;20505;-68
2021/09/20 02:03:28;;;;;;;4.43;4.22;;;;;;;9.67;86.96;101292.91;4355498;32;20083;-68
2021/09/20 02:05:53;;;;;;;4.60;4.40;;;;;;;9.60;87.70;101297.53;4329674;32;20070;-68
2021/09/20 02:08:19;;;;;;;4.40;4.20;;;;;;;9.54;88.25;101292.53;4350184;32;20086;-68
2021/09/20 02:10:44;;;;;;;4.30;4.10;;;;;;;9.47;88.72;101298.94;4335157;32;20090;-67
2021/09/20 02:13:09;;;;;;;6.15;5.85;;;;;;;9.43;89.04;101300.81;4365022;32;20169;-68
2021/09/20 02:15:35;;;;;;;4.60;4.40;;;;;;;9.37;89.31;101293.19;4342783;32;20081;-68
2021/09/20 02:18:00;;;;;;;5.75;5.55;;;;;;;9.33;89.03;101299.44;4339745;32;20066;-68
2021/09/20 02:20:25;;;;;;;4.50;4.30;;;;;;;9.33;90.03;101302.06;4341223;32;21570;-67
2021/09/20 02:22:51;;;;;;;4.50;4.30;;;;;;;9.28;90.08;101303.97;4330636;32;20070;-67
2021/09/20 02:25:18;;;;;;;4.20;4.00;;;;;;;9.27;90.14;101305.75;4344761;32;20560;-67
2021/09/20 02:27:43;;;;;;;4.60;4.40;;;;;;;9.23;90.62;101298.06;4343687;32;20154;-68
2021/09/20 02:30:09;;;;;;;6.35;6.05;;;;;;;9.19;90.43;101303.41;4319076;32;20066;-67
2021/09/20 02:32:34;;;;;;;4.40;4.20;;;;;;;9.17;90.79;101310.47;4324318;32;20417;-68
2021/09/20 02:35:00;;;;;;;5.93;5.65;;;;;;;9.17;90.26;101312.25;4398832;32;20094;-68
2021/09/20 02:37:25;;;;;;;4.35;4.15;;;;;;;9.14;90.72;101307.97;4323245;32;20097;-68
2021/09/20 02:39:51;;;;;;;4.20;4.00;;;;;;;9.11;90.80;101302.84;4326620;32;20672;-67
2021/09/20 02:42:16;;;;;;;5.30;5.03;;;;;;;9.06;90.84;101307.41;4318124;32;20818;-68
2021/09/20 02:44:41;;;;;;;4.22;4.03;;;;;;;9.06;91.32;101304.78;4367446;32;20075;-68
2021/09/20 02:47:07;;;;;;;6.25;5.85;;;;;;;9.02;91.34;101305.81;4394230;32;20345;-68
2021/09/20 02:49:33;;;;;;;4.43;4.22;;;;;;;8.99;91.16;101303.28;4335935;32;20102;-67
2021/09/20 02:51:59;;;;;;;5.20;5.00;;;;;;;8.96;90.91;101301.66;4346112;32;20359;-68
2021/09/20 02:54:24;;;;;;;4.37;4.18;;;;;;;8.95;91.65;101309.53;4333502;32;20346;-67
2021/09/20 02:56:49;;;;;;;4.75;4.55;;;;;;;8.94;91.19;101307.81;4328574;32;20066;-68
2021/09/20 02:59:15;;;;;;;4.97;4.78;;;;;;;8.95;91.11;101325.25;4335341;32;20927;-67
2021/09/20 03:01:40;;;;;;;4.25;4.05;;;;;;;8.92;91.92;101310.50;4347446;32;20346;-67
2021/09/20 03:04:05;;;;;;;6.30;6.00;;;;;;;8.93;92.07;101308.75;4340323;32;20081;-67
2021/09/20 03:06:31;;;;;;;4.53;4.32;;;;;;;8.95;91.55;101307.78;4349525;32;20077;-68
2021/09/20 03:08:56;;;;;;;4.60;4.40;;;;;;;8.96;91.77;101311.25;4353999;32;20097;-68
2021/09/20 03:11:22;;;;;;;4.25;4.05;;;;;;;8.93;91.71;101308.75;4346913;32;20626;-68
2021/09/20 03:13:47;;;;;;;4.70;4.50;;;;;;;8.91;91.22;101308.78;4353616;32;20145;-67
2021/09/20 03:16:12;;;;;;;6.45;6.15;;;;;;;8.87;91.89;101307.19;4345955;32;20092;-68
2021/09/20 03:18:38;;;;;;;4.45;4.25;;;;;;;8.84;91.00;101306.44;4352364;32;20092;-67
2021/09/20 03:21:03;;;;;;;6.55;6.25;;;;;;;8.81;91.83;101309.19;4333686;32;20073;-67
2021/09/20 03:23:29;;;;;;;4.50;4.30;;;;;;;8.76;91.16;101311.97;4353440;32;20084;-67
2021/09/20 03:25:54;;;;;;;4.20;4.00;;;;;;;8.71;90.75;101312.09;4330254;32;20089;-68
2021/09/20 03:28:19;;;;;;;4.25;4.05;;;;;;;8.68;91.47;101307.00;4354642;32;20080;-68
2021/09/20 03:30:45;;;;;;;4.25;4.05;;;;;;;7.39;91.69;101125.66;4351110;32;20078;-67
2021/09/20 03:33:10;;;;;;;6.25;5.95;;;;;;;8.62;91.57;101317.69;4332239;32;20658;-67
2021/09/20 03:35:35;;;;;;;4.25;4.05;;;;;;;8.61;91.46;101317.72;4350717;32;20069;-67
2021/09/20 03:38:01;;;;;;;5.72;5.50;;;;;;;8.58;91.98;101324.75;4354213;32;20069;-68
2021/09/20 03:40:26;;;;;;;4.50;4.30;;;;;;;8.57;91.93;101325.66;4334304;32;20700;-67
2021/09/20 03:42:51;;;;;;;4.10;3.90;;;;;;;8.44;92.78;101313.03;4333499;32;20079;-68
2021/09/20 03:45:17;;;;;;;5.12;4.82;;;;;;;8.55;93.12;101332.69;4411518;32;20088;-67
2021/09/20 03:47:42;;;;;;;4.25;4.05;;;;;;;8.54;92.44;101332.78;4411959;32;20079;-68
2021/09/20 03:50:08;;;;;;;5.82;5.57;;;;;;;8.30;92.74;101293.41;4417511;32;20069;-68
2021/09/20 03:52:34;;;;;;;4.00;3.80;;;;;;;8.53;92.31;101333.66;4435232;32;20069;-67
2021/09/20 03:54:59;;;;;;;5.00;4.80;;;;;;;8.55;92.46;101337.94;4410115;32;20080;-68
2021/09/20 03:57:25;;;;;;;4.43;4.22;;;;;;;8.53;92.52;101328.44;4406425;32;20103;-67
2021/09/20 03:59:50;;;;;;;4.20;4.00;;;;;;;7.11;91.93;101095.19;4408206;32;20130;-68
2021/09/20 04:02:15;;;;;;;4.55;4.35;;;;;;;8.43;92.35;101325.28;4406302;32;20365;-67
2021/09/20 04:04:41;;;;;;;4.37;4.18;;;;;;;8.47;93.13;101331.25;4410088;32;20213;-67
2021/09/20 04:07:06;;;;;;;5.68;5.47;;;;;;;8.45;92.23;101347.00;4408882;32;20225;-68
2021/09/20 04:09:32;;;;;;;4.62;4.43;;;;;;;8.42;91.92;101341.00;4423455;32;20089;-68
2021/09/20 04:11:57;;;;;;;4.97;4.68;;;;;;;8.41;93.05;101347.12;4409996;32;20080;-69
2021/09/20 04:14:22;;;;;;;4.40;4.20;;;;;;;8.41;92.66;101347.12;4426925;32;20080;-67
2021/09/20 04:16:48;;;;;;;4.87;4.57;;;;;;;8.41;92.48;101347.12;4410833;32;20079;-67
2021/09/20 04:19:13;;;;;;;5.43;5.22;;;;;;;8.41;92.51;101350.62;4423370;32;20473;-67
2021/09/20 04:21:38;;;;;;;4.20;4.00;;;;;;;8.40;93.09;101354.12;4414163;32;20075;-70
2021/09/20 04:24:04;;;;;;;6.15;5.85;;;;;;;8.38;92.45;101354.16;4421623;32;20575;-68
2021/09/20 04:26:29;;;;;;;4.60;4.40;;;;;;;8.31;92.68;101349.19;4412245;32;20609;-67
2021/09/20 04:28:55;;;;;;;4.35;4.15;;;;;;;8.34;93.16;101360.41;4411042;32;20320;-68
2021/09/20 04:31:20;;;;;;;4.43;4.22;;;;;;;8.30;93.16;101358.78;4410279;32;20121;-68
2021/09/20 04:33:46;;;;;;;4.35;4.15;;;;;;;8.28;93.18;101352.75;4424828;32;20071;-68
2021/09/20 04:36:11;;;;;;;4.53;4.32;;;;;;;7.74;92.67;101264.72;4421551;32;20138;-68
2021/09/20 04:38:37;;;;;;;4.32;4.12;;;;;;;8.28;93.11;101357.09;4417644;32;20073;-67
2021/09/20 04:41:02;;;;;;;5.55;5.35;;;;;;;8.26;93.29;101359.78;4427347;32;20092;-68
2021/09/20 04:43:27;;;;;;;4.37;4.18;;;;;;;8.23;94.00;101365.09;4403948;32;20070;-67
2021/09/20 04:45:53;;;;;;;4.30;4.10;;;;;;;8.22;93.60;101367.75;4397468;32;20104;-67
2021/09/20 04:48:18;;;;;;;5.03;4.82;;;;;;;8.16;94.04;101364.47;4350047;32;20213;-67
2021/09/20 04:50:44;;;;;;;4.10;3.90;;;;;;;8.15;92.95;101364.50;4398376;32;20153;-69
2021/09/20 04:53:10;;;;;;;5.70;5.47;;;;;;;8.12;93.49;101375.06;4424532;32;20085;-67
2021/09/20 04:55:35;;;;;;;4.55;4.35;;;;;;;7.81;93.58;101323.72;4350364;32;20211;-68
2021/09/20 04:58:05;;;;;;;5.87;5.60;;;;;;;8.08;94.36;101381.25;4395933;32;20094;-67
2021/09/20 05:00:30;;;;;;;4.60;4.40;;;;;;;6.45;93.72;101115.41;4400343;32;20561;-68
2021/09/20 05:02:56;;;;;;;4.50;4.30;;;;;;;7.87;94.21;101359.28;4346951;32;20088;-68
2021/09/20 05:05:21;;;;;;;5.03;4.72;;;;;;;8.05;94.70;101384.00;4395697;32;20502;-67
2021/09/20 05:07:46;;;;;;;4.30;4.10;;;;;;;8.06;94.43;101385.69;4350419;32;20073;-70
2021/09/20 05:10:12;;;;;;;7.32;7.03;;;;;;;7.70;93.94;101328.44;4396073;32;20082;-67
2021/09/20 05:12:37;;;;;;;4.05;3.85;;;;;;;8.10;94.39;101395.19;4399334;32;20659;-67
2021/09/20 05:15:03;;;;;;;5.72;5.47;;;;;;;8.12;95.29;101389.00;4398312;32;20488;-69
2021/09/20 05:17:28;;;;;;;4.40;4.20;;;;;;;8.12;95.27;101391.59;4388910;32;20154;-69
2021/09/20 05:19:53;;;;;;;4.20;4.00;;;;;;;8.14;94.73;101395.03;4409687;32;20080;-69
2021/09/20 05:22:19;;;;;;;4.50;4.30;;;;;;;8.17;95.35;101388.84;4408127;32;20065;-69
2021/09/20 05:24:44;;;;;;;4.20;4.00;;;;;;;8.16;95.36;101397.59;4350494;32;20109;-69
2021/09/20 05:27:09;;;;;;;5.82;5.55;;;;;;;8.19;95.49;101392.25;4396958;32;20088;-68
2021/09/20 05:29:35;;;;;;;4.40;4.20;;;;;;;8.23;95.60;101400.88;4397334;32;20081;-69
2021/09/20 05:32:00;;;;;;;5.78;5.50;;;;;;;8.07;94.75;101379.56;4401524;32;20564;-68
2021/09/20 05:34:28;;;;;;;4.50;4.30;;;;;;;8.30;95.48;101399.75;4400088;32;20682;-68
2021/09/20 05:36:54;;;;;;;4.20;4.00;;;;;;;8.01;94.81;101341.41;4370202;32;20149;-68
2021/09/20 05:39:19;;;;;;;4.30;4.10;;;;;;;8.39;95.33;101402.94;4383161;32;20923;-67
2021/09/20 05:41:44;;;;;;;4.12;3.92;;;;;;;8.46;94.86;101403.66;4408047;32;20066;-67
2021/09/20 05:44:10;;;;;;;5.57;5.37;;;;;;;8.48;94.95;101398.34;4410401;32;20071;-69
2021/09/20 05:46:35;;;;;;;4.25;4.05;;;;;;;7.22;93.95;101170.56;4420854;32;20099;-68
2021/09/20 05:49:01;;;;;;;5.45;5.25;;;;;;;8.78;93.92;101399.13;4405076;32;20065;-69
2021/09/20 05:51:26;;;;;;;4.30;4.10;;;;;;;8.91;93.99;101394.31;4437862;32;20332;-68
2021/09/20 05:53:51;;;;;;;4.80;4.60;;;;;;;9.03;94.11;101406.16;4401814;32;20079;-68
2021/09/20 05:56:17;;;;;;;4.80;4.60;;;;;;;9.16;93.26;101403.06;4395455;32;20068;-68
2021/09/20 05:58:42;;;;;;;4.45;4.25;;;;;;;8.80;92.98;101321.41;4405824;32;20101;-68
2021/09/20 06:01:07;;;;;;;6.20;5.90;;;;;;;9.45;93.22;101414.25;4395941;32;20091;-68
2021/09/20 06:03:33;;;;;;;4.40;4.20;;;;;;;9.59;92.82;101408.50;4411600;32;20664;-69
2021/09/20 06:05:58;;;;;;;4.80;4.60;;;;;;;9.74;92.73;101407.06;4413589;32;20085;-70
2021/09/20 06:08:23;;;;;;;4.82;4.62;;;;;;;9.86;92.28;101406.66;4420703;32;20082;-69
2021/09/20 06:10:49;;;;;;;4.30;4.10;;;;;;;10.01;91.85;101412.22;4413170;32;20530;-69
2021/09/20 06:13:14;;;;;;;5.22;5.03;;;;;;;10.06;91.42;101403.22;4407285;32;20442;-69
2021/09/20 06:15:40;;;;;;;4.50;4.30;;;;;;;10.28;90.61;101415.50;4425031;32;20091;-69
2021/09/20 06:18:06;;;;;;;5.95;5.65;;;;;;;10.40;90.65;101420.31;4421408;32;20103;-69
2021/09/20 06:20:31;;;;;;;4.50;4.30;;;;;;;10.54;90.15;101417.13;4425342;32;20099;-69
2021/09/20 06:22:56;;;;;;;4.53;4.32;;;;;;;8.39;89.11;101065.56;4408306;32;20588;-70
2021/09/20 06:25:24;;;;;;;4.90;4.70;;;;;;;10.78;88.56;101417.91;4423116;32;20091;-69
2021/09/20 06:27:49;;;;;;;4.87;4.68;;;;;;;10.65;88.29;101375.56;4424869;32;20080;-70
2021/09/20 06:30:14;;;;;;;5.10;4.90;;;;;;;11.09;87.61;101417.47;4421837;32;21031;-70
2021/09/20 06:32:40;;;;;;;5.03;4.78;;;;;;;11.27;86.98;101422.84;4411970;32;20072;-70
2021/09/20 06:35:06;;;;;;;6.25;5.90;;;;;;;11.06;86.68;101372.09;4407118;32;20060;-68
2021/09/20 06:37:31;;;;;;;4.53;4.32;;;;;;;11.40;86.07;101410.88;4409357;32;20076;-68
2021/09/20 06:39:57;;;;;;;4.75;4.55;;;;;;;11.57;85.12;101431.16;4409310;32;20138;-69
2021/09/20 06:42:22;;;;;;;5.05;4.85;;;;;;;11.59;84.56;101429.31;4404208;32;20068;-70
2021/09/20 06:44:51;;;;;;;4.68;4.47;;;;;;;11.65;84.07;101422.94;4412029;32;20098;-71
2021/09/20 06:47:20;;;;;;;5.03;4.70;;;;;;;11.77;83.81;101425.00;4408029;32;20086;-75
2021/09/20 06:49:45;;;;;;;5.25;4.95;;;;;;;11.78;83.98;101429.34;4407842;32;20088;-72
2021/09/20 06:52:11;;;;;;;6.07;5.78;;;;;;;11.94;84.29;101430.34;4406187;32;20161;-70
2021/09/20 06:54:36;;;;;;;4.82;4.62;;;;;;;12.00;84.34;101431.00;4423630;32;20087;-70
2021/09/20 06:57:02;;;;;;;5.10;4.85;;;;;;;12.05;82.94;101426.41;4407461;32;20542;-70
2021/09/20 06:59:27;;;;;;;5.10;4.80;;;;;;;12.18;81.74;101424.88;4420578;32;20139;-73
2021/09/20 07:01:52;;;;;;;4.75;4.53;;;;;;;12.09;79.60;101417.44;4431150;32;20072;-71
2021/09/20 07:04:18;;;;;;;5.12;4.82;;;;;;;12.22;78.47;101434.34;4408684;32;21113;-74
2021/09/20 07:06:45;;;;;;;5.22;4.93;;;;;;;12.22;77.77;101434.34;4434561;32;20072;-71
2021/09/20 07:09:10;;;;;;;6.35;6.05;;;;;;;12.33;78.03;101434.69;4411060;32;20129;-71
2021/09/20 07:11:36;;;;;;;5.28;4.97;;;;;;;12.50;77.27;101438.28;4406723;32;20084;-73
2021/09/20 07:14:02;;;;;;;5.57;5.37;;;;;;;12.49;76.10;101445.34;4421518;32;20149;-72
2021/09/20 07:16:28;;;;;;;4.80;4.60;;;;;;;12.67;77.58;101451.50;4410534;32;20264;-74
2021/09/20 07:18:53;;;;;;;4.70;4.50;;;;;;;12.69;76.34;101441.75;4424939;32;20076;-73
2021/09/20 07:21:22;;;;;;;5.00;4.80;;;;;;;12.71;75.15;101439.03;4405636;32;21371;-72
2021/09/20 07:23:47;;;;;;;4.87;4.68;;;;;;;12.71;74.63;101447.78;4423756;32;20077;-69
2021/09/20 07:26:13;;;;;;;6.95;6.32;;;;;;;12.83;74.91;101453.34;4408470;32;20488;-69
2021/09/20 07:28:38;;;;;;;4.97;4.78;;;;;;;12.86;75.39;101443.53;4421989;32;20306;-69
2021/09/20 07:31:03;;;;;;;4.80;4.60;;;;;;;12.99;73.86;101451.69;4405893;32;20084;-69
2021/09/20 07:33:29;;;;;;;4.90;4.70;;;;;;;13.16;74.24;101454.31;4435962;32;20087;-69
2021/09/20 07:35:54;;;;;;;5.45;5.15;;;;;;;13.20;74.15;101455.00;4422388;32;20107;-69
2021/09/20 07:38:19;;;;;;;4.80;4.60;;;;;;;13.20;73.37;101452.38;4422126;32;20077;-68
2021/09/20 07:40:45;;;;;;;5.20;5.00;;;;;;;13.44;73.42;101433.63;4432604;32;20076;-69
2021/09/20 07:43:10;;;;;;;6.60;6.30;;;;;;;13.32;71.15;101459.69;4410166;32;20091;-69
2021/09/20 07:45:36;;;;;;;5.07;4.80;;;;;;;13.43;71.35;101438.03;4344114;32;20067;-69
2021/09/20 07:48:01;;;;;;;6.43;6.12;;;;;;;13.48;69.95;101470.28;4328001;32;20127;-69
2021/09/20 07:50:26;;;;;;;4.90;4.70;;;;;;;13.50;69.97;101444.69;4354456;32;20104;-69
2021/09/20 07:52:52;;;;;;;4.90;4.70;;;;;;;13.53;68.69;101447.16;4346272;32;20089;-69
2021/09/20 07:55:17;;;;;;;5.03;4.80;;;;;;;13.54;68.33;101450.66;4342227;32;22106;-71
2021/09/20 07:57:43;;;;;;;4.82;4.62;;;;;;;13.73;67.83;101467.22;4370354;32;20137;-74
2021/09/20 08:00:09;;;;;;;6.37;6.07;;;;;;;13.73;67.26;101466.34;4345113;32;20070;-70
2021/09/20 08:02:34;;;;;;;4.90;4.70;;;;;;;13.29;67.91;101401.84;4348818;32;20096;-70
2021/09/20 08:04:59;;;;;;;5.65;5.43;;;;;;;13.57;68.43;101448.72;4357537;32;20073;-72
2021/09/20 08:07:25;;;;;;;4.50;4.30;;;;;;;13.77;66.24;101470.53;4361703;32;20845;-71
2021/09/20 08:09:50;;;;;;;5.10;4.90;;;;;;;13.53;65.71;101473.53;4355328;32;20089;-72
2021/09/20 08:12:16;;;;;;;6.12;5.82;;;;;;;13.56;66.11;101478.66;4405645;32;20530;-70
2021/09/20 08:14:41;;;;;;;4.72;4.53;;;;;;;13.74;65.94;101476.81;4403732;32;20069;-68
2021/09/20 08:17:10;;;;;;;4.97;4.78;;;;;;;13.81;66.05;101482.66;4409361;32;20074;-68
2021/09/20 08:19:35;;;;;;;5.50;5.20;;;;;;;13.99;64.18;101479.94;4396913;32;20098;-68
2021/09/20 08:22:01;;;;;;;5.87;5.57;;;;;;;13.97;65.27;101482.66;4392517;32;20088;-68
2021/09/20 08:24:26;;;;;;;5.10;4.90;;;;;;;14.20;64.96;101483.22;4393634;32;20085;-68
2021/09/20 08:26:52;;;;;;;5.20;5.00;;;;;;;14.09;63.98;101457.37;4392581;32;20086;-68
2021/09/20 08:29:17;;;;;;;5.00;4.80;;;;;;;14.00;63.36;101493.06;4396003;32;20093;-68
2021/09/20 08:31:42;;;;;;;4.82;4.62;;;;;;;14.09;63.64;101491.69;4396124;32;20640;-70
2021/09/20 08:34:08;;;;;;;6.65;6.35;;;;;;;14.35;64.53;101483.22;4394036;32;20077;-68
2021/09/20 08:36:33;;;;;;;5.20;5.00;;;;;;;14.40;62.09;101490.87;4395001;32;20077;-68
2021/09/20 08:38:58;;;;;;;5.55;5.30;;;;;;;14.11;63.02;101490.69;4410756;32;21316;-70
2021/09/20 08:41:24;;;;;;;4.90;4.70;;;;;;;14.16;64.65;101469.31;4393649;32;20069;-68
2021/09/20 08:43:49;;;;;;;5.22;5.00;;;;;;;14.39;63.39;101493.59;4406790;32;20076;-70
2021/09/20 08:46:14;;;;;;;5.62;5.32;;;;;;;14.55;62.03;101491.78;4419800;32;20099;-70
2021/09/20 08:48:49;;;;;;;5.45;5.15;;;;;;;15.07;61.87;101494.13;4434049;32;20072;-70
2021/09/20 08:51:16;;;;;;;6.20;5.90;;;;;;;15.14;60.29;101492.00;4427471;32;20084;-70
2021/09/20 08:53:41;;;;;;;5.80;5.50;;;;;;;15.01;60.51;101486.56;4408387;32;20088;-70
2021/09/20 08:56:07;;;;;;;7.15;6.80;;;;;;;15.02;59.91;101496.19;4418024;32;20087;-68
2021/09/20 08:58:32;;;;;;;5.32;5.03;;;;;;;15.11;60.00;101498.31;4408480;32;20068;-71
2021/09/20 09:00:57;;;;;;;5.87;5.57;;;;;;;15.00;59.24;101499.88;4408619;32;20971;-69
2021/09/20 09:03:26;;;;;;;5.12;4.82;;;;;;;15.22;60.08;101492.38;4411035;32;20076;-71
2021/09/20 09:05:51;;;;;;;5.37;5.03;;;;;;;15.09;59.44;101486.09;4421779;32;21187;-70
2021/09/20 09:08:19;;;;;;;5.25;4.95;;;;;;;15.18;58.92;101511.19;4407365;32;21340;-70
2021/09/20 09:10:57;;;;;;;5.55;5.25;;;;;;;15.09;59.26;101516.03;4412882;32;20170;-70
2021/09/20 09:13:35;;;;;;;5.95;5.65;;;;;;;15.49;59.37;101516.34;4409854;32;20211;-69
2021/09/20 09:16:21;;;;;;;6.20;5.90;;;;;;;15.53;59.02;101520.50;4419993;32;20107;-70
2021/09/20 09:19:05;;;;;;;12.25;11.63;;;;;;;14.92;58.07;101429.81;4428401;32;20087;-69
2021/09/20 09:21:34;;;;;;;6.00;5.70;;;;;;;15.61;57.28;101529.78;4403528;32;20154;-70
2021/09/20 09:24:10;;;;;;;5.93;5.62;;;;;;;15.88;57.51;101508.78;4433359;32;20064;-70
2021/09/20 09:26:36;;;;;;;5.00;4.80;;;;;;;15.94;58.01;101519.81;4415844;32;20628;-70
2021/09/20 09:29:09;;;;;;;5.40;5.10;;;;;;;16.01;57.56;101522.94;4422024;32;20076;-68
2021/09/20 09:31:35;;;;;;;5.20;4.90;;;;;;;16.49;58.21;101518.13;4425808;32;20103;-69
2021/09/20 09:34:34;;;;;;;6.55;6.15;;;;;;;16.26;56.84;101535.50;4407925;32;20099;-71
2021/09/20 09:37:10;;;;;;;5.90;5.62;;;;;;;16.09;57.45;101527.75;4409273;32;20111;-69
2021/09/20 09:39:35;;;;;;;5.00;4.80;;;;;;;16.06;57.59;101527.97;4410312;32;20071;-67
2021/09/20 09:42:01;;;;;;;6.25;5.95;;;;;;;16.37;56.24;101533.97;4404282;32;20076;-68
2021/09/20 09:44:28;;;;;;;4.90;4.70;;;;;;;16.68;54.84;101528.44;4412144;32;20091;-69
2021/09/20 09:46:53;;;;;;;5.60;5.30;;;;;;;14.95;55.92;101347.69;4421827;32;20106;-68
2021/09/20 09:49:20;;;;;;;5.12;4.93;;;;;;;16.15;56.93;101541.47;4406416;32;21153;-69
2021/09/20 09:52:00;;;;;;;5.30;5.00;;;;;;;16.24;58.07;101532.09;4424774;32;20179;-68
2021/09/20 09:54:33;;;;;;;5.30;5.10;;;;;;;16.62;56.09;101542.06;4421585;32;20068;-68
2021/09/20 09:57:15;;;;;;;5.37;5.18;;;;;;;16.02;57.49;101531.75;4410582;32;20103;-69
2021/09/20 09:59:41;;;;;;;5.93;5.62;;;;;;;16.24;55.96;101541.84;4422316;32;20074;-69
2021/09/20 10:02:16;;;;;;;6.45;6.15;;;;;;;16.08;56.34;101539.31;4408427;32;20097;-69
2021/09/20 10:04:52;;;;;;;5.37;5.18;;;;;;;16.24;55.79;101541.84;4420846;32;20082;-69
2021/09/20 10:07:32;;;;;;;5.32;5.03;;;;;;;15.94;56.78;101545.44;4407639;32;20813;-67
2021/09/20 10:09:58;;;;;;;5.50;5.25;;;;;;;16.22;57.90;101536.66;4422220;32;20077;-68
2021/09/20 10:12:25;;;;;;;5.20;5.00;;;;;;;16.18;56.48;101539.56;4408191;32;20068;-67
2021/09/20 10:14:51;;;;;;;4.97;4.78;;;;;;;16.37;57.59;101541.94;4415525;32;20829;-67
2021/09/20 10:17:19;;;;;;;5.55;5.35;;;;;;;15.86;57.94;101551.22;4417566;32;20099;-69
2021/09/20 10:19:45;;;;;;;5.35;5.05;;;;;;;15.85;57.23;101551.28;4410984;32;20161;-69
2021/09/20 10:22:11;;;;;;;6.60;6.25;;;;;;;15.74;56.65;101551.97;4408430;32;20171;-69
2021/09/20 10:24:36;;;;;;;5.00;4.70;;;;;;;15.75;56.00;101548.34;4413258;32;20139;-70
2021/09/20 10:27:01;;;;;;;6.22;5.93;;;;;;;15.63;56.32;101549.06;4408376;32;20072;-70
2021/09/20 10:29:27;;;;;;;5.45;5.15;;;;;;;15.89;55.92;101536.94;4412303;32;20068;-70
2021/09/20 10:31:52;;;;;;;5.25;5.05;;;;;;;15.75;56.22;101553.66;4412455;32;20075;-69
2021/09/20 10:34:17;;;;;;;6.35;5.95;;;;;;;15.64;57.20;101554.25;4410360;32;20146;-70
2021/09/20 10:36:50;;;;;;;5.00;4.80;;;;;;;15.52;58.34;101557.66;4436002;32;20954;-69
2021/09/20 10:39:16;;;;;;;5.10;4.90;;;;;;;15.37;56.82;101551.44;4392568;32;20090;-70
2021/09/20 10:41:41;;;;;;;5.05;4.85;;;;;;;15.64;57.08;101559.56;4384207;32;20073;-70
2021/09/20 10:44:08;;;;;;;4.93;4.72;;;;;;;15.74;56.42;101551.97;4365074;32;20062;-70
2021/09/20 10:46:34;;;;;;;5.80;5.40;;;;;;;15.86;56.12;101553.00;4346896;32;20196;-70
2021/09/20 10:49:03;;;;;;;5.78;5.47;;;;;;;15.75;55.34;101485.72;4346487;32;20066;-70
2021/09/20 10:51:35;;;;;;;5.55;5.25;;;;;;;16.05;55.36;101558.03;4335503;32;20082;-69
2021/09/20 10:54:23;;;;;;;5.47;5.28;;;;;;;16.37;55.51;101552.53;4328739;32;20090;-69
2021/09/20 10:56:53;;;;;;;5.50;5.20;;;;;;;16.27;54.50;101554.88;4350593;32;20182;-68
2021/09/20 10:59:19;;;;;;;5.05;4.85;;;;;;;16.27;56.36;101553.09;4363113;32;20065;-67
2021/09/20 11:01:55;;;;;;;5.22;5.03;;;;;;;16.38;55.90;101544.47;4379148;32;20086;-68
2021/09/20 11:04:21;;;;;;;5.28;4.97;;;;;;;16.47;54.90;101553.62;4397533;32;20204;-68
2021/09/20 11:07:05;;;;;;;6.00;5.62;;;;;;;16.46;54.78;101552.78;4381561;32;20082;-68
2021/09/20 11:09:32;;;;;;;5.07;4.87;;;;;;;16.66;54.04;101548.03;4362304;32;20134;-72
2021/09/20 11:12:11;;;;;;;5.30;5.10;;;;;;;16.92;53.78;101546.38;4355985;32;20080;-69
2021/09/20 11:14:42;;;;;;;5.45;5.15;;;;;;;16.49;54.70;101533.19;4405998;32;20924;-70
2021/09/20 11:17:20;;;;;;;6.65;6.35;;;;;;;16.71;54.06;101567.12;4415601;32;20667;-69
2021/09/20 11:19:45;;;;;;;5.32;5.12;;;;;;;16.66;53.30;101545.37;4421822;32;20088;-67
2021/09/20 11:22:27;;;;;;;6.65;6.35;;;;;;;16.84;52.88;101551.28;4399472;32;20209;-69
2021/09/20 11:24:53;;;;;;;5.85;5.47;;;;;;;16.89;51.77;101554.50;4399875;32;20069;-71
2021/09/20 11:27:22;;;;;;;5.75;5.45;;;;;;;17.34;52.41;101555.09;4410967;32;20160;-71